Terminal Aerodrome Forecast
Issued by NWS

Home | Current Version | Previous Version | Graphics & Text | Print | Product List | Glossary On
Versions: 1 2 3 4 5 6 7 8 9 10 11 12 13 14 15 16
000
FTUS43 KABR 231128
TAFPIR
TAF
KPIR 231128Z 2312/2412 31020G29KT P6SM FEW200
     FM231600 31027G38KT P6SM FEW200
     FM240100 32020G29KT P6SM SCT140=

USA.gov is the U.S. government's official web portal to all federal, state and local government web resources and services.